Time;durP1;ratioP1;P1;durP2;ratioP2;P2;SDS_P1;SDS_P2;PMS_P1;PMS_P2;Temp;Humidity;BMP_temperature;BMP_pressure;BME280_temperature;BME280_humidity;BME280_pressure;Samples;Min_cycle;Max_cycle;Signal;HPM_P1;HPM_P2
2021/11/18 00:01:04;;;;;;;100.07;55.83;;;;;;;;;;5096938;28;20321;-87
2021/11/18 00:03:30;;;;;;;105.90;57.00;;;;;;;;;;5097835;28;20406;-87
2021/11/18 00:05:56;;;;;;;99.05;55.75;;;;;;;;;;5097746;28;20073;-86
2021/11/18 00:08:23;;;;;;;102.70;59.22;;;;;;;;;;5097538;28;20036;-86
2021/11/18 00:10:52;;;;;;;106.35;60.10;;;;;;;;;;5097935;28;20031;-87
2021/11/18 00:13:18;;;;;;;110.90;62.10;;;;;;;;;;5077666;28;20085;-88
2021/11/18 00:15:45;;;;;;;109.68;63.33;;;;;;;;;;5077609;28;20052;-87
2021/11/18 00:18:16;;;;;;;111.93;65.00;;;;;;;;;;5076813;28;20106;-87
2021/11/18 00:23:48;;;;;;;120.40;67.75;;;;;;;;;;5077198;28;20445;-87
2021/11/18 00:26:15;;;;;;;120.57;70.15;;;;;;;;;;5077429;28;20043;-86
2021/11/18 00:28:41;;;;;;;123.43;68.78;;;;;;;;;;5097421;28;20028;-87
2021/11/18 00:31:07;;;;;;;120.18;69.28;;;;;;;;;;5097634;28;20020;-86
2021/11/18 00:33:46;;;;;;;130.48;72.78;;;;;;;;;;5097726;28;20040;-87
2021/11/18 00:36:14;;;;;;;116.97;70.10;;;;;;;;;;5097762;28;20047;-87
2021/11/18 00:38:40;;;;;;;117.95;68.20;;;;;;;;;;5077374;28;20291;-87
2021/11/18 00:41:07;;;;;;;120.43;68.55;;;;;;;;;;5077165;28;20111;-87
2021/11/18 00:43:33;;;;;;;122.03;71.45;;;;;;;;;;5077544;28;20021;-87
2021/11/18 00:45:59;;;;;;;122.18;70.65;;;;;;;;;;5077063;28;20043;-88
2021/11/18 00:48:25;;;;;;;123.75;71.45;;;;;;;;;;5076110;28;20116;-87
2021/11/18 00:53:57;;;;;;;123.57;72.47;;;;;;;;;;5080988;28;20441;-87
2021/11/18 00:56:24;;;;;;;118.93;68.72;;;;;;;;;;5081062;28;20138;-87
2021/11/18 00:58:50;;;;;;;118.18;66.93;;;;;;;;;;5081029;28;20032;-87
2021/11/18 01:01:17;;;;;;;116.50;66.88;;;;;;;;;;5080813;28;20044;-87
2021/11/18 01:03:44;;;;;;;116.07;66.38;;;;;;;;;;5080934;28;20026;-86
2021/11/18 01:06:10;;;;;;;121.35;71.20;;;;;;;;;;5079877;28;20028;-87
2021/11/18 01:08:36;;;;;;;118.80;69.97;;;;;;;;;;5080821;28;20028;-87
2021/11/18 01:11:13;;;;;;;126.22;73.07;;;;;;;;;;5079744;28;20039;-88
2021/11/18 01:13:40;;;;;;;122.03;71.53;;;;;;;;;;5080866;28;20028;-87
2021/11/18 01:16:07;;;;;;;127.50;74.53;;;;;;;;;;5080499;28;20024;-87
2021/11/18 01:18:33;;;;;;;127.05;70.18;;;;;;;;;;5091886;28;20311;-87
2021/11/18 01:21:18;;;;;;;124.85;70.45;;;;;;;;;;5100755;28;20038;-87
2021/11/18 01:23:45;;;;;;;129.18;71.07;;;;;;;;;;5100500;28;20028;-87
2021/11/18 01:26:13;;;;;;;125.10;69.95;;;;;;;;;;5100997;28;20020;-88
2021/11/18 01:28:39;;;;;;;124.13;69.80;;;;;;;;;;5100495;28;20025;-87
2021/11/18 01:31:05;;;;;;;116.15;67.50;;;;;;;;;;5100772;28;20020;-87
2021/11/18 01:33:32;;;;;;;113.45;65.65;;;;;;;;;;5100293;28;20031;-87
2021/11/18 01:35:58;;;;;;;117.65;66.32;;;;;;;;;;5100774;28;20040;-88
2021/11/18 01:38:25;;;;;;;118.97;66.57;;;;;;;;;;5092158;28;20104;-87
2021/11/18 01:40:58;;;;;;;115.50;65.85;;;;;;;;;;5080207;28;20100;-87
2021/11/18 01:43:26;;;;;;;111.45;64.63;;;;;;;;;;5079965;28;20389;-88
2021/11/18 01:45:53;;;;;;;111.75;63.67;;;;;;;;;;5080005;28;20049;-87
2021/11/18 01:48:19;;;;;;;108.35;62.10;;;;;;;;;;5079185;28;20196;-87
2021/11/18 01:50:47;;;;;;;105.65;59.03;;;;;;;;;;5079928;28;20027;-86
2021/11/18 01:53:14;;;;;;;110.40;62.60;;;;;;;;;;5090435;28;20042;-87
2021/11/18 01:55:41;;;;;;;107.60;63.05;;;;;;;;;;5100337;28;20020;-88
2021/11/18 01:58:08;;;;;;;106.85;61.28;;;;;;;;;;5100276;28;20028;-87
2021/11/18 02:00:43;;;;;;;104.63;60.60;;;;;;;;;;5099648;28;20038;-87
2021/11/18 02:03:10;;;;;;;107.88;59.97;;;;;;;;;;5099383;28;20020;-88
2021/11/18 02:05:37;;;;;;;104.97;59.90;;;;;;;;;;5100142;28;20050;-87
2021/11/18 02:08:05;;;;;;;98.00;58.47;;;;;;;;;;5086728;28;20052;-88
2021/11/18 02:10:33;;;;;;;103.65;57.00;;;;;;;;;;5079739;28;20024;-87
2021/11/18 02:13:01;;;;;;;97.38;59.40;;;;;;;;;;5079485;28;20020;-87
2021/11/18 02:15:35;;;;;;;102.07;58.30;;;;;;;;;;5078265;28;20062;-88
2021/11/18 02:18:03;;;;;;;98.15;56.88;;;;;;;;;;5078256;28;20070;-87
2021/11/18 02:20:31;;;;;;;98.95;57.42;;;;;;;;;;5090401;28;20024;-87
2021/11/18 02:22:57;;;;;;;97.65;56.80;;;;;;;;;;5098459;28;20114;-87
2021/11/18 02:25:31;;;;;;;100.40;55.70;;;;;;;;;;5099416;28;20024;-87
2021/11/18 02:27:57;;;;;;;91.47;51.95;;;;;;;;;;5099595;28;20040;-87
2021/11/18 02:30:26;;;;;;;93.68;55.20;;;;;;;;;;5098304;28;20092;-87
2021/11/18 02:32:53;;;;;;;94.35;53.45;;;;;;;;;;5099605;28;20032;-87
2021/11/18 02:41:26;;;;;;;82.90;49.58;;;;;;;;;;5078937;28;20042;-88
2021/11/18 02:43:52;;;;;;;84.78;48.60;;;;;;;;;;5077877;28;20398;-88
2021/11/18 02:46:18;;;;;;;84.80;51.20;;;;;;;;;;5099088;28;20023;-88
2021/11/18 02:48:45;;;;;;;85.93;50.50;;;;;;;;;;5099292;28;20020;-88
2021/11/18 02:51:12;;;;;;;80.80;48.63;;;;;;;;;;5098040;28;20024;-89
2021/11/18 02:53:39;;;;;;;91.22;50.88;;;;;;;;;;5087239;28;20327;-89
2021/11/18 02:56:05;;;;;;;89.10;52.80;;;;;;;;;;5077922;28;20468;-88
2021/11/18 02:58:31;;;;;;;83.18;50.38;;;;;;;;;;5081741;28;20322;-88
2021/11/18 03:01:18;;;;;;;87.82;51.72;;;;;;;;;;5098148;28;20342;-88
2021/11/18 03:03:44;;;;;;;81.43;49.25;;;;;;;;;;5098774;28;20023;-89
2021/11/18 03:06:11;;;;;;;86.65;51.05;;;;;;;;;;5097892;28;20349;-88
2021/11/18 03:08:38;;;;;;;116.28;64.20;;;;;;;;;;5098401;28;20024;-88
2021/11/18 03:11:05;;;;;;;115.05;63.38;;;;;;;;;;5098803;28;20394;-88
2021/11/18 03:13:32;;;;;;;102.40;59.58;;;;;;;;;;5097862;28;20032;-88
2021/11/18 03:15:58;;;;;;;89.95;52.67;;;;;;;;;;5094870;28;20399;-88
2021/11/18 03:18:26;;;;;;;89.97;52.85;;;;;;;;;;5078399;28;20028;-87
2021/11/18 03:20:53;;;;;;;93.45;54.63;;;;;;;;;;5077890;28;20112;-88
2021/11/18 03:23:19;;;;;;;81.80;52.22;;;;;;;;;;5078323;28;20036;-86
2021/11/18 03:25:47;;;;;;;85.68;51.22;;;;;;;;;;5078056;28;20021;-87
2021/11/18 03:28:13;;;;;;;83.13;52.47;;;;;;;;;;5078233;28;20024;-88
2021/11/18 03:30:41;;;;;;;87.57;51.45;;;;;;;;;;5092534;28;20398;-88
2021/11/18 03:33:10;;;;;;;84.47;50.60;;;;;;;;;;5079924;28;20020;-89
2021/11/18 03:35:36;;;;;;;82.50;50.13;;;;;;;;;;5078396;28;20023;-88
2021/11/18 03:38:03;;;;;;;79.22;49.10;;;;;;;;;;5077057;28;20470;-88
2021/11/18 03:40:29;;;;;;;82.22;46.65;;;;;;;;;;5094016;28;20065;-88
2021/11/18 03:42:55;;;;;;;81.35;46.17;;;;;;;;;;5098330;28;20365;-88
2021/11/18 03:45:23;;;;;;;73.93;45.28;;;;;;;;;;5098338;28;20115;-88
2021/11/18 03:47:49;;;;;;;76.40;43.95;;;;;;;;;;5098359;28;20024;-88
2021/11/18 03:50:16;;;;;;;74.63;45.30;;;;;;;;;;5098160;28;20028;-87
2021/11/18 03:52:42;;;;;;;74.28;44.38;;;;;;;;;;5096942;28;20111;-88
2021/11/18 03:55:09;;;;;;;76.07;44.55;;;;;;;;;;5096973;28;20039;-88
2021/11/18 03:57:35;;;;;;;76.50;45.17;;;;;;;;;;5097055;28;20039;-87
2021/11/18 04:00:04;;;;;;;74.32;45.90;;;;;;;;;;5097049;28;20032;-87
2021/11/18 04:02:31;;;;;;;78.45;46.63;;;;;;;;;;5096654;28;20126;-88
2021/11/18 04:05:00;;;;;;;75.97;44.38;;;;;;;;;;5091844;28;20024;-87
2021/11/18 04:07:27;;;;;;;76.40;47.35;;;;;;;;;;5076790;28;20037;-87
2021/11/18 04:09:53;;;;;;;73.32;47.35;;;;;;;;;;5077539;28;20021;-87
2021/11/18 04:12:19;;;;;;;81.18;48.30;;;;;;;;;;5076661;28;20032;-87
2021/11/18 04:14:46;;;;;;;74.00;48.00;;;;;;;;;;5077177;28;20415;-87
2021/11/18 04:17:13;;;;;;;77.90;47.60;;;;;;;;;;5078220;28;20100;-87
2021/11/18 04:19:39;;;;;;;85.63;48.88;;;;;;;;;;5096566;28;20027;-86
2021/11/18 04:25:10;;;;;;;81.65;48.08;;;;;;;;;;5091352;28;20374;-87
2021/11/18 04:27:36;;;;;;;79.45;47.50;;;;;;;;;;5080033;28;20051;-87
2021/11/18 04:30:04;;;;;;;82.22;48.35;;;;;;;;;;5082116;28;20517;-87
2021/11/18 04:32:30;;;;;;;77.72;47.67;;;;;;;;;;5101855;28;20111;-87
2021/11/18 04:38:18;;;;;;;81.28;51.28;;;;;;;;;;5101729;28;20058;-87
2021/11/18 04:40:45;;;;;;;87.88;49.95;;;;;;;;;;5097623;28;20037;-88
2021/11/18 04:43:11;;;;;;;86.05;51.78;;;;;;;;;;5081631;28;20103;-89
2021/11/18 04:45:37;;;;;;;86.72;52.95;;;;;;;;;;5081110;28;20013;-88
2021/11/18 04:48:04;;;;;;;89.55;51.20;;;;;;;;;;5081203;28;20066;-87
2021/11/18 04:56:38;;;;;;;84.05;50.33;;;;;;;;;;5080994;28;20035;-87
2021/11/18 04:59:04;;;;;;;86.57;52.55;;;;;;;;;;5079910;28;20055;-87
2021/11/18 05:01:31;;;;;;;91.00;51.83;;;;;;;;;;5091877;28;20069;-87
2021/11/18 05:03:57;;;;;;;89.30;51.85;;;;;;;;;;5101298;28;20020;-87
2021/11/18 05:06:23;;;;;;;88.38;50.35;;;;;;;;;;5099871;28;20048;-86
2021/11/18 05:08:50;;;;;;;87.70;50.85;;;;;;;;;;5101047;28;20020;-87
2021/11/18 05:11:16;;;;;;;89.82;51.38;;;;;;;;;;5100027;28;20406;-87
2021/11/18 05:13:42;;;;;;;88.13;51.85;;;;;;;;;;5100751;28;20039;-87
2021/11/18 05:16:09;;;;;;;90.50;50.33;;;;;;;;;;5100991;28;20028;-88
2021/11/18 05:18:35;;;;;;;91.05;51.42;;;;;;;;;;5100858;28;20023;-87
2021/11/18 05:21:02;;;;;;;86.40;50.28;;;;;;;;;;5100674;28;20062;-87
2021/11/18 05:23:28;;;;;;;82.63;49.65;;;;;;;;;;5099797;28;20024;-87
2021/11/18 05:25:55;;;;;;;87.65;50.45;;;;;;;;;;5101000;28;20085;-86
2021/11/18 05:28:21;;;;;;;90.47;51.10;;;;;;;;;;5100398;28;20028;-88
2021/11/18 05:30:47;;;;;;;84.25;49.95;;;;;;;;;;5100216;28;20468;-88
2021/11/18 05:33:15;;;;;;;84.22;49.38;;;;;;;;;;5083333;28;20032;-87
2021/11/18 05:36:18;;;;;;;85.65;49.40;;;;;;;;;;5080330;28;20097;-88
2021/11/18 05:38:45;;;;;;;85.80;48.95;;;;;;;;;;5078934;28;20025;-88
2021/11/18 05:41:12;;;;;;;81.03;47.40;;;;;;;;;;5080134;28;20318;-88
2021/11/18 05:43:42;;;;;;;83.00;47.35;;;;;;;;;;5079363;28;20028;-88
2021/11/18 05:46:08;;;;;;;86.13;45.85;;;;;;;;;;5079121;28;20480;-87
2021/11/18 05:48:35;;;;;;;77.72;47.85;;;;;;;;;;5078654;28;20024;-87
2021/11/18 05:51:01;;;;;;;79.60;47.38;;;;;;;;;;5080048;28;20032;-88
2021/11/18 05:53:29;;;;;;;79.00;45.25;;;;;;;;;;5078817;28;20020;-87
2021/11/18 05:55:57;;;;;;;76.97;43.88;;;;;;;;;;5080163;28;20040;-87
2021/11/18 05:58:23;;;;;;;78.32;45.30;;;;;;;;;;5079889;28;20025;-87
2021/11/18 06:00:49;;;;;;;81.70;44.42;;;;;;;;;;5079430;28;20411;-87
2021/11/18 06:03:16;;;;;;;80.50;46.10;;;;;;;;;;5079097;28;20445;-87
2021/11/18 06:05:42;;;;;;;83.65;46.47;;;;;;;;;;5079092;28;20430;-87
2021/11/18 06:08:08;;;;;;;82.65;44.90;;;;;;;;;;5079578;28;20063;-86
2021/11/18 06:10:35;;;;;;;85.70;47.30;;;;;;;;;;5079332;28;20099;-87
2021/11/18 06:13:02;;;;;;;84.78;47.28;;;;;;;;;;5079421;28;20103;-86
2021/11/18 06:15:28;;;;;;;81.32;46.85;;;;;;;;;;5079247;28;20021;-86
2021/11/18 06:17:54;;;;;;;87.28;47.78;;;;;;;;;;5079256;28;20395;-86
2021/11/18 06:20:21;;;;;;;91.60;52.75;;;;;;;;;;5098687;28;20402;-86
2021/11/18 06:25:50;;;;;;;99.72;55.65;;;;;;;;;;5099662;28;20120;-86
2021/11/18 06:28:16;;;;;;;92.93;52.17;;;;;;;;;;5099849;28;20027;-86
2021/11/18 06:30:51;;;;;;;95.65;53.63;;;;;;;;;;5099186;28;20028;-86
2021/11/18 06:33:17;;;;;;;89.18;50.45;;;;;;;;;;5099468;28;20047;-86
2021/11/18 06:35:44;;;;;;;92.03;51.88;;;;;;;;;;5098360;28;20131;-86
2021/11/18 06:38:10;;;;;;;91.60;51.47;;;;;;;;;;5099337;28;20020;-86
2021/11/18 06:40:36;;;;;;;89.65;50.00;;;;;;;;;;5098993;28;20020;-86
2021/11/18 06:43:04;;;;;;;90.25;48.95;;;;;;;;;;5098241;28;20016;-86
2021/11/18 06:45:31;;;;;;;84.90;48.28;;;;;;;;;;5099236;28;20119;-86
2021/11/18 06:47:57;;;;;;;91.20;49.47;;;;;;;;;;5098342;28;20119;-86
2021/11/18 06:50:24;;;;;;;90.85;49.97;;;;;;;;;;5099268;28;20019;-87
2021/11/18 06:55:54;;;;;;;86.13;47.40;;;;;;;;;;5099154;28;20047;-86
2021/11/18 06:58:20;;;;;;;85.75;46.58;;;;;;;;;;5098145;28;20039;-87
2021/11/18 07:00:46;;;;;;;92.57;50.92;;;;;;;;;;5098527;28;20435;-87
2021/11/18 07:03:13;;;;;;;110.22;53.03;;;;;;;;;;5098954;28;20051;-87
2021/11/18 07:05:39;;;;;;;107.03;53.60;;;;;;;;;;5098924;28;20027;-87
2021/11/18 07:08:15;;;;;;;109.05;57.00;;;;;;;;;;5079777;28;20047;-86
2021/11/18 07:10:42;;;;;;;110.25;56.47;;;;;;;;;;5098314;28;20127;-87
2021/11/18 07:13:16;;;;;;;133.63;60.17;;;;;;;;;;5097519;28;20020;-87
2021/11/18 07:15:42;;;;;;;147.00;61.65;;;;;;;;;;5091596;28;20115;-89
2021/11/18 07:18:08;;;;;;;162.52;69.97;;;;;;;;;;5077682;28;20032;-89
2021/11/18 07:20:34;;;;;;;173.80;70.35;;;;;;;;;;5078079;28;20065;-89
2021/11/18 07:26:05;;;;;;;111.97;61.13;;;;;;;;;;5078063;28;20074;-89
2021/11/18 07:28:32;;;;;;;103.30;57.92;;;;;;;;;;5077923;28;20467;-88
2021/11/18 07:31:00;;;;;;;84.13;47.80;;;;;;;;;;5078110;28;20474;-89
2021/11/18 07:33:26;;;;;;;82.35;46.85;;;;;;;;;;5078279;28;20028;-89
2021/11/18 07:35:53;;;;;;;83.78;47.75;;;;;;;;;;5077889;28;20024;-89
2021/11/18 07:38:38;;;;;;;75.55;42.83;;;;;;;;;;5078156;28;20067;-89
2021/11/18 07:41:06;;;;;;;70.47;41.63;;;;;;;;;;5077135;28;20037;-89
2021/11/18 07:43:34;;;;;;;78.88;42.08;;;;;;;;;;5077058;28;20047;-89
2021/11/18 07:46:02;;;;;;;68.50;39.78;;;;;;;;;;5077821;28;20021;-89
2021/11/18 07:48:28;;;;;;;62.80;36.13;;;;;;;;;;5078026;28;20091;-88
2021/11/18 07:50:55;;;;;;;59.35;33.88;;;;;;;;;;5077145;28;20039;-88
2021/11/18 07:53:21;;;;;;;55.30;32.38;;;;;;;;;;5078136;28;20055;-89
2021/11/18 07:55:47;;;;;;;57.70;34.38;;;;;;;;;;5078021;28;20020;-89
2021/11/18 07:58:14;;;;;;;63.70;35.92;;;;;;;;;;5077681;28;20403;-89
2021/11/18 08:00:42;;;;;;;58.83;35.95;;;;;;;;;;5076925;28;20028;-89
2021/11/18 08:03:09;;;;;;;55.67;32.15;;;;;;;;;;5077868;28;20024;-90
2021/11/18 08:05:35;;;;;;;47.00;26.65;;;;;;;;;;5076997;28;20304;-90
2021/11/18 08:08:01;;;;;;;42.58;25.92;;;;;;;;;;5077561;28;20031;-88
2021/11/18 08:10:27;;;;;;;42.75;26.20;;;;;;;;;;5077428;28;20434;-89
2021/11/18 08:12:53;;;;;;;42.85;25.13;;;;;;;;;;5076617;28;20422;-90
2021/11/18 08:15:20;;;;;;;41.42;24.33;;;;;;;;;;5078062;28;20039;-90
2021/11/18 08:17:46;;;;;;;40.75;23.75;;;;;;;;;;5078002;28;20025;-88
2021/11/18 08:20:13;;;;;;;36.22;22.23;;;;;;;;;;5077479;28;20109;-88
2021/11/18 08:22:40;;;;;;;37.10;22.33;;;;;;;;;;5076869;28;20442;-85
2021/11/18 08:25:07;;;;;;;41.50;24.70;;;;;;;;;;5078047;28;20354;-88
2021/11/18 08:27:33;;;;;;;39.97;23.83;;;;;;;;;;5076931;28;20020;-88
2021/11/18 08:30:00;;;;;;;41.03;23.85;;;;;;;;;;5077837;28;20062;-88
2021/11/18 08:32:26;;;;;;;43.67;24.65;;;;;;;;;;5077874;28;20103;-88
2021/11/18 08:34:52;;;;;;;41.55;23.63;;;;;;;;;;5077871;28;20028;-87
2021/11/18 08:40:22;;;;;;;36.38;21.60;;;;;;;;;;5077555;28;20028;-88
2021/11/18 08:42:48;;;;;;;42.67;23.70;;;;;;;;;;5077119;28;20449;-89
2021/11/18 08:45:14;;;;;;;40.92;22.88;;;;;;;;;;5077404;28;20378;-89
2021/11/18 08:47:40;;;;;;;43.72;24.50;;;;;;;;;;5077166;28;20025;-89
2021/11/18 08:50:09;;;;;;;47.03;25.10;;;;;;;;;;5077596;28;20100;-89
2021/11/18 08:52:37;;;;;;;42.67;23.95;;;;;;;;;;5077338;28;20135;-88
2021/11/18 08:55:05;;;;;;;46.70;24.63;;;;;;;;;;5076322;28;20020;-89
2021/11/18 08:57:31;;;;;;;39.33;23.05;;;;;;;;;;5076383;28;20028;-89
2021/11/18 08:59:57;;;;;;;43.08;24.35;;;;;;;;;;5076752;28;20063;-89
2021/11/18 09:02:25;;;;;;;38.65;20.98;;;;;;;;;;5077242;28;20464;-89
2021/11/18 09:04:52;;;;;;;39.15;21.23;;;;;;;;;;5083466;28;20031;-89
2021/11/18 09:07:18;;;;;;;36.75;19.55;;;;;;;;;;5097652;28;20029;-88
2021/11/18 09:09:44;;;;;;;37.78;22.55;;;;;;;;;;5096160;28;20040;-88
2021/11/18 09:12:11;;;;;;;41.58;20.42;;;;;;;;;;5096598;28;20426;-88
2021/11/18 09:14:38;;;;;;;41.60;21.10;;;;;;;;;;5099813;28;20077;-90
2021/11/18 09:17:05;;;;;;;38.15;20.95;;;;;;;;;;5101219;28;20348;-90
2021/11/18 09:19:33;;;;;;;36.50;22.00;;;;;;;;;;5101165;28;20024;-88
2021/11/18 09:22:01;;;;;;;37.78;22.77;;;;;;;;;;5100064;28;20036;-90
2021/11/18 09:24:29;;;;;;;37.92;22.55;;;;;;;;;;5099862;28;20026;-88
2021/11/18 09:27:06;;;;;;;151.65;100.03;;;;;;;;;;5100791;28;20066;-89
2021/11/18 09:29:32;;;;;;;149.75;89.88;;;;;;;;;;5100596;28;20062;-88
2021/11/18 09:31:59;;;;;;;189.45;112.22;;;;;;;;;;5100171;28;20024;-88
2021/11/18 09:34:26;;;;;;;56.88;33.92;;;;;;;;;;5100505;28;20402;-89
2021/11/18 09:36:54;;;;;;;70.90;45.70;;;;;;;;;;5100357;28;20024;-89
2021/11/18 09:39:21;;;;;;;38.17;22.70;;;;;;;;;;5099748;28;20035;-90
2021/11/18 09:41:53;;;;;;;37.50;23.42;;;;;;;;;;5100442;28;20031;-89
2021/11/18 09:44:22;;;;;;;30.63;18.63;;;;;;;;;;5100756;28;20023;-88
2021/11/18 09:46:55;;;;;;;35.70;19.42;;;;;;;;;;5099649;28;20024;-88
2021/11/18 09:49:33;;;;;;;38.05;21.58;;;;;;;;;;5099627;28;20093;-89
2021/11/18 09:52:08;;;;;;;41.35;26.23;;;;;;;;;;5100575;28;20032;-89
2021/11/18 09:54:34;;;;;;;36.25;21.13;;;;;;;;;;5100429;28;20024;-89
2021/11/18 09:57:19;;;;;;;35.05;22.08;;;;;;;;;;5100039;28;20028;-89
2021/11/18 09:59:49;;;;;;;41.00;21.65;;;;;;;;;;5099172;28;20124;-89
2021/11/18 10:02:33;;;;;;;41.35;24.75;;;;;;;;;;5100163;28;20043;-89
2021/11/18 10:05:02;;;;;;;42.05;24.55;;;;;;;;;;5099908;28;20023;-89
2021/11/18 10:07:28;;;;;;;46.47;27.13;;;;;;;;;;5099333;28;20318;-89
2021/11/18 10:10:05;;;;;;;42.92;25.13;;;;;;;;;;5099640;28;20386;-89
2021/11/18 10:12:46;;;;;;;37.72;23.02;;;;;;;;;;5099813;28;20465;-89
2021/11/18 10:15:16;;;;;;;43.38;25.98;;;;;;;;;;5098892;28;20024;-89
2021/11/18 10:17:52;;;;;;;34.35;21.98;;;;;;;;;;5099664;28;20020;-88
2021/11/18 10:20:20;;;;;;;37.05;22.50;;;;;;;;;;5099387;28;20028;-88
2021/11/18 10:22:48;;;;;;;44.35;27.80;;;;;;;;;;5098773;28;20024;-89
2021/11/18 10:25:17;;;;;;;47.75;28.23;;;;;;;;;;5098223;28;20329;-89
2021/11/18 10:27:48;;;;;;;38.63;25.17;;;;;;;;;;5099332;28;20024;-90
2021/11/18 10:30:21;;;;;;;36.80;22.65;;;;;;;;;;5099520;28;20028;-88
2021/11/18 10:32:47;;;;;;;;;;;;;;;;;;5100061;28;20370;-88
2021/11/18 10:35:26;;;;;;;37.78;23.75;;;;;;;;;;5098831;28;19904;-88
2021/11/18 10:38:10;;;;;;;36.17;23.33;;;;;;;;;;5099184;28;20020;-89
2021/11/18 10:40:36;;;;;;;43.13;21.75;;;;;;;;;;5099198;28;20481;-87
2021/11/18 10:43:15;;;;;;;36.28;19.42;;;;;;;;;;5099573;28;20024;-88
2021/11/18 10:45:43;;;;;;;44.25;19.98;;;;;;;;;;5099092;28;20357;-90
2021/11/18 10:48:21;;;;;;;44.50;22.23;;;;;;;;;;5099391;28;20024;-88
2021/11/18 10:50:47;;;;;;;36.17;18.90;;;;;;;;;;5099057;28;20052;-88
2021/11/18 10:53:26;;;;;;;37.75;19.75;;;;;;;;;;5099143;28;20044;-89
2021/11/18 10:56:06;;;;;;;36.22;18.98;;;;;;;;;;5099245;28;20051;-88
2021/11/18 10:58:35;;;;;;;38.50;22.63;;;;;;;;;;5098196;28;20042;-88
2021/11/18 11:01:14;;;;;;;30.05;19.42;;;;;;;;;;5097899;28;20038;-88
2021/11/18 11:03:42;;;;;;;29.50;18.80;;;;;;;;;;5098250;28;20035;-88
2021/11/18 11:06:12;;;;;;;30.23;19.00;;;;;;;;;;5099093;28;20016;-88
2021/11/18 11:08:39;;;;;;;32.05;20.08;;;;;;;;;;5097734;28;20028;-88
2021/11/18 11:11:21;;;;;;;28.40;17.13;;;;;;;;;;5097743;28;20024;-89
2021/11/18 11:13:59;;;;;;;26.60;16.95;;;;;;;;;;5098920;28;20024;-88
2021/11/18 11:16:34;;;;;;;28.23;18.88;;;;;;;;;;5098545;28;20352;-89
2021/11/18 11:19:07;;;;;;;33.22;20.88;;;;;;;;;;5098708;28;20020;-89
2021/11/18 11:21:52;;;;;;;28.65;17.23;;;;;;;;;;5098681;28;20036;-89
2021/11/18 11:24:37;;;;;;;32.78;20.67;;;;;;;;;;5098516;28;20402;-88
2021/11/18 11:27:09;;;;;;;29.30;18.20;;;;;;;;;;5098371;28;20027;-88
2021/11/18 11:29:35;;;;;;;37.58;22.17;;;;;;;;;;5097367;28;20020;-88
2021/11/18 11:32:07;;;;;;;37.80;22.83;;;;;;;;;;5097250;28;20039;-89
2021/11/18 11:34:44;;;;;;;33.95;20.23;;;;;;;;;;5098194;28;20058;-88
2021/11/18 11:37:15;;;;;;;33.03;19.55;;;;;;;;;;5096876;28;20032;-89
2021/11/18 11:43:07;;;;;;;32.05;17.88;;;;;;;;;;5098178;28;20329;-89
2021/11/18 11:46:06;;;;;;;33.17;18.73;;;;;;;;;;5097198;28;20127;-88
2021/11/18 11:48:53;;;;;;;24.75;16.95;;;;;;;;;;5080720;28;20032;-88
2021/11/18 11:51:27;;;;;;;25.90;16.75;;;;;;;;;;5097295;28;20032;-89
2021/11/18 11:54:02;;;;;;;27.55;16.77;;;;;;;;;;5097900;28;20107;-88
2021/11/18 11:56:42;;;;;;;25.60;15.93;;;;;;;;;;5097924;28;20032;-89
2021/11/18 11:59:20;;;;;;;26.75;17.05;;;;;;;;;;5097914;28;20028;-90
2021/11/18 12:01:55;;;;;;;30.42;16.42;;;;;;;;;;5098016;28;20035;-89
2021/11/18 12:04:23;;;;;;;26.83;17.17;;;;;;;;;;5097746;28;20507;-89
2021/11/18 12:06:49;;;;;;;27.05;16.42;;;;;;;;;;5096997;28;20487;-89
2021/11/18 12:09:36;;;;;;;26.60;15.70;;;;;;;;;;5092915;28;20071;-91
2021/11/18 12:12:05;;;;;;;29.73;18.80;;;;;;;;;;5098812;28;20028;-89
2021/11/18 12:14:57;;;;;;;25.83;16.70;;;;;;;;;;5098206;28;20020;-90
2021/11/18 12:17:26;;;;;;;28.55;17.95;;;;;;;;;;5095693;28;20028;-90
2021/11/18 12:20:02;;;;;;;29.48;18.33;;;;;;;;;;5097690;28;20429;-90
2021/11/18 12:22:34;;;;;;;30.98;17.63;;;;;;;;;;5097548;28;20414;-90
2021/11/18 12:28:16;;;;;;;31.55;18.52;;;;;;;;;;5097969;28;20065;-89
2021/11/18 12:30:48;;;;;;;27.02;18.23;;;;;;;;;;5097596;28;20100;-90
2021/11/18 12:33:20;;;;;;;29.88;17.42;;;;;;;;;;5096918;28;20059;-90
2021/11/18 12:36:06;;;;;;;35.03;22.00;;;;;;;;;;5097735;28;20157;-90
2021/11/18 12:38:33;;;;;;;30.98;18.70;;;;;;;;;;5097255;28;20028;-89
2021/11/18 12:41:14;;;;;;;30.75;18.08;;;;;;;;;;5097385;28;20055;-89
2021/11/18 12:43:59;;;;;;;28.02;17.05;;;;;;;;;;5097366;28;20505;-89
2021/11/18 12:46:28;;;;;;;35.08;21.58;;;;;;;;;;5097788;28;20153;-89
2021/11/18 12:48:54;;;;;;;31.42;18.52;;;;;;;;;;5101662;28;20020;-89
2021/11/18 12:51:39;;;;;;;34.55;18.98;;;;;;;;;;5100800;28;20105;-89
2021/11/18 12:54:19;;;;;;;29.30;17.85;;;;;;;;;;5101313;28;20321;-89
2021/11/18 12:57:09;;;;;;;29.77;18.95;;;;;;;;;;5100382;28;20024;-89
2021/11/18 12:59:46;;;;;;;28.13;17.65;;;;;;;;;;5100555;28;20028;-88
2021/11/18 13:02:12;;;;;;;29.70;18.00;;;;;;;;;;5100467;28;20048;-89
2021/11/18 13:04:40;;;;;;;26.13;17.38;;;;;;;;;;5100396;28;20035;-88
2021/11/18 13:07:08;;;;;;;28.33;16.88;;;;;;;;;;5100368;28;20054;-88
2021/11/18 13:10:01;;;;;;;25.65;16.25;;;;;;;;;;5097928;28;20046;-89
2021/11/18 13:12:28;;;;;;;30.33;19.52;;;;;;;;;;5099275;28;20330;-88
2021/11/18 13:14:57;;;;;;;27.65;17.55;;;;;;;;;;5101151;28;20059;-89
2021/11/18 13:17:32;;;;;;;28.67;17.08;;;;;;;;;;5100309;28;20036;-89
2021/11/18 13:20:18;;;;;;;25.90;17.45;;;;;;;;;;5100873;28;20102;-89
2021/11/18 13:22:49;;;;;;;84.85;40.28;;;;;;;;;;5042055;28;20041;-90
2021/11/18 13:25:20;;;;;;;150.52;73.10;;;;;;;;;;5058841;28;20068;-88
2021/11/18 13:27:49;;;;;;;60.35;35.50;;;;;;;;;;5042226;28;20060;-89
2021/11/18 13:30:39;;;;;;;38.17;23.58;;;;;;;;;;5058610;28;20027;-88
2021/11/18 13:33:31;;;;;;;30.45;20.23;;;;;;;;;;4980149;28;20163;-88
2021/11/18 13:36:02;;;;;;;22.60;15.10;;;;;;;;;;4977331;28;20049;-89
2021/11/18 13:44:37;;;;;;;32.47;17.65;;;;;;;;;;4979984;28;20054;-89
2021/11/18 13:47:21;;;;;;;26.35;15.95;;;;;;;;;;4979529;28;20030;-89
2021/11/18 13:49:49;;;;;;;45.70;22.25;;;;;;;;;;4979445;28;20029;-89
2021/11/18 13:52:25;;;;;;;28.90;16.92;;;;;;;;;;4979334;28;20062;-89
2021/11/18 13:55:11;;;;;;;27.52;16.50;;;;;;;;;;4979520;28;20023;-89
2021/11/18 13:57:46;;;;;;;20.92;13.80;;;;;;;;;;4979494;28;20132;-89
2021/11/18 14:00:14;;;;;;;21.35;12.38;;;;;;;;;;5017360;28;20047;-89
2021/11/18 14:03:03;;;;;;;20.88;13.25;;;;;;;;;;5038119;28;20029;-89
2021/11/18 14:05:38;;;;;;;18.48;12.23;;;;;;;;;;4998656;28;20070;-89
2021/11/18 14:11:08;;;;;;;19.33;11.80;;;;;;;;;;5059114;28;20046;-89
2021/11/18 14:13:44;;;;;;;24.15;13.85;;;;;;;;;;5060727;28;20067;-89
2021/11/18 14:16:12;;;;;;;24.70;14.02;;;;;;;;;;5077910;28;20063;-90
2021/11/18 14:18:56;;;;;;;20.20;12.77;;;;;;;;;;5077888;28;20090;-89
2021/11/18 14:21:41;;;;;;;22.80;13.13;;;;;;;;;;5060925;28;20036;-88
2021/11/18 14:27:10;;;;;;;;;;;;;;;;;;5078189;28;20082;-88
2021/11/18 14:29:53;;;;;;;43.65;26.05;;;;;;;;;;5060725;28;20282;-89
2021/11/18 14:32:31;;;;;;;53.05;26.60;;;;;;;;;;5077501;28;20036;-88
2021/11/18 14:35:16;;;;;;;42.92;24.42;;;;;;;;;;5077441;28;20051;-89
2021/11/18 14:37:49;;;;;;;42.83;24.75;;;;;;;;;;5077701;28;20029;-89
2021/11/18 14:43:18;;;;;;;43.97;24.23;;;;;;;;;;5095881;28;20360;-89
2021/11/18 14:45:46;;;;;;;43.25;24.95;;;;;;;;;;5099135;28;20020;-86
2021/11/18 14:48:12;;;;;;;49.13;25.98;;;;;;;;;;5099400;28;20028;-88
2021/11/18 14:50:39;;;;;;;49.00;25.70;;;;;;;;;;5099341;28;20023;-88
2021/11/18 14:53:26;;;;;;;46.25;24.50;;;;;;;;;;5097993;28;20031;-89
2021/11/18 14:58:57;;;;;;;48.47;25.90;;;;;;;;;;5099169;28;20046;-89
2021/11/18 15:01:25;;;;;;;60.10;30.00;;;;;;;;;;5098741;28;20459;-89
2021/11/18 15:03:57;;;;;;;60.83;30.30;;;;;;;;;;5098830;28;20031;-89
2021/11/18 15:06:26;;;;;;;64.57;33.28;;;;;;;;;;5098018;28;20028;-88
2021/11/18 15:08:53;;;;;;;51.63;27.98;;;;;;;;;;5099056;28;20036;-89
2021/11/18 15:11:19;;;;;;;34.28;20.40;;;;;;;;;;5097626;28;20089;-89
2021/11/18 15:13:45;;;;;;;31.85;20.38;;;;;;;;;;5098928;28;20024;-88
2021/11/18 15:16:11;;;;;;;33.05;20.27;;;;;;;;;;5098668;28;20024;-88
2021/11/18 15:18:37;;;;;;;38.20;21.85;;;;;;;;;;5098654;28;20512;-88
2021/11/18 15:21:04;;;;;;;30.55;19.45;;;;;;;;;;5098796;28;20314;-89
2021/11/18 15:23:30;;;;;;;27.92;17.10;;;;;;;;;;5098767;28;20040;-88
2021/11/18 15:25:57;;;;;;;24.48;16.90;;;;;;;;;;5098699;28;20366;-88
2021/11/18 15:28:24;;;;;;;19.98;14.52;;;;;;;;;;5097496;28;20024;-88
2021/11/18 15:30:56;;;;;;;19.95;13.70;;;;;;;;;;5092472;28;20355;-93
2021/11/18 15:33:23;;;;;;;17.98;14.05;;;;;;;;;;5077727;28;20043;-95